createdAt,value
2023-05-06T00:00:15.264Z,98.43
2023-05-06T00:02:16.240Z,98.39
2023-05-06T00:06:19.243Z,98.29
2023-05-06T00:10:21.404Z,98.24
2023-05-06T00:12:22.523Z,98.32
2023-05-06T00:16:25.570Z,98.35
2023-05-06T00:18:26.732Z,98.33
2023-05-06T00:20:27.931Z,98.33
2023-05-06T00:22:28.970Z,98.28
2023-05-06T00:26:31.761Z,98.15
2023-05-06T00:28:33.428Z,98.11
2023-05-06T00:32:36.727Z,97.97
2023-05-06T00:34:37.631Z,97.89
2023-05-06T00:38:40.356Z,97.62
2023-05-06T00:40:41.369Z,97.52
2023-05-06T00:42:42.277Z,97.43
2023-05-06T00:44:43.567Z,97.56
2023-05-06T00:48:46.618Z,97.59
2023-05-06T00:50:47.663Z,97.84
2023-05-06T00:54:50.190Z,97.81
2023-05-06T00:58:52.146Z,97.95
2023-05-06T01:00:53.233Z,97.9
2023-05-06T01:04:55.616Z,97.98
2023-05-06T01:08:58.318Z,97.83
2023-05-06T01:10:59.506Z,97.95
2023-05-06T01:15:02.686Z,97.95
2023-05-06T01:17:03.834Z,97.94
2023-05-06T01:21:06.431Z,98.04
2023-05-06T01:25:09.700Z,97.98
2023-05-06T01:27:10.629Z,98
2023-05-06T01:31:13.466Z,97.9
2023-05-06T01:33:14.470Z,97.96
2023-05-06T01:37:17.351Z,97.91
2023-05-06T01:41:20.193Z,97.93
2023-05-06T01:43:22.103Z,97.96
2023-05-06T01:47:25.368Z,98.05
2023-05-06T01:51:28.394Z,98.09
2023-05-06T01:53:29.759Z,98.08
2023-05-06T01:57:32.445Z,98.12
2023-05-06T01:59:33.821Z,98.16
2023-05-06T02:03:36.318Z,98.09
2023-05-06T02:07:38.587Z,98.07
2023-05-06T02:09:40.235Z,98.1
2023-05-06T02:13:42.618Z,98.13
2023-05-06T02:15:44.128Z,98.14
2023-05-06T02:19:46.747Z,98.17
2023-05-06T02:23:49.960Z,98.25
2023-05-06T02:25:51.696Z,98.21
2023-05-06T02:29:53.824Z,98.35
2023-05-06T02:35:58.245Z,98.3
2023-05-06T02:40:00.266Z,98.31
2023-05-06T02:42:01.827Z,98.26
2023-05-06T02:46:04.225Z,98.4
2023-05-06T02:50:06.385Z,98.3
2023-05-06T02:52:08.139Z,98.23
2023-05-06T02:56:11.216Z,98.34
2023-05-06T02:58:12.344Z,98.3
2023-05-06T03:02:15.494Z,98.22
2023-05-06T03:06:17.967Z,98.11
2023-05-06T03:08:19.122Z,98.08
2023-05-06T03:12:22.590Z,98.04
2023-05-06T03:14:23.802Z,98.05
2023-05-06T03:18:26.826Z,97.95
2023-05-06T03:22:29.415Z,98.15
2023-05-06T03:24:30.890Z,98.13
2023-05-06T03:28:34.092Z,98.12
2023-05-06T03:32:37.401Z,98.23
2023-05-06T03:34:38.413Z,98.19
2023-05-06T03:38:40.772Z,98.31
2023-05-06T03:40:42.660Z,98.37
2023-05-06T03:44:45.439Z,98.3
2023-05-06T03:48:47.812Z,98.3
2023-05-06T03:50:49.504Z,98.28
2023-05-06T03:54:52.430Z,98.13
2023-05-06T03:56:53.457Z,98.04
2023-05-06T04:00:57.010Z,97.69
2023-05-06T04:04:59.922Z,97.33
2023-05-06T04:07:01.609Z,97.28
2023-05-06T04:11:03.856Z,97.27
2023-05-06T04:15:06.294Z,97.29
2023-05-06T04:17:07.987Z,97.32
2023-05-06T04:21:11.253Z,97.39
2023-05-06T04:23:12.674Z,97.38
2023-05-06T04:25:13.925Z,97.42
2023-05-06T04:27:15.397Z,97.43
2023-05-06T04:31:28.106Z,97.54
2023-05-06T04:34:13.189Z,97.56
2023-05-06T04:38:16.141Z,97.7
2023-05-06T04:42:18.261Z,97.52
2023-05-06T04:44:19.980Z,97.54
2023-05-06T04:48:22.159Z,97.59
2023-05-06T04:52:24.339Z,97.51
2023-05-06T04:54:25.844Z,97.44
2023-05-06T04:58:28.553Z,97.42
2023-05-06T05:00:29.696Z,97.46
2023-05-06T05:04:32.266Z,97.09
2023-05-06T05:08:35.460Z,97.18
2023-05-06T05:10:36.787Z,97.51
2023-05-06T05:14:39.166Z,96.56
2023-05-06T05:16:40.194Z,96.59
2023-05-06T05:20:43.358Z,96.51
2023-05-06T05:24:46.209Z,96.67
2023-05-06T05:26:47.501Z,95.48
2023-05-06T05:30:49.744Z,93.2
2023-05-06T05:36:53.091Z,93.08
2023-05-06T05:40:55.834Z,93.6
2023-05-06T05:42:57.018Z,93.88
2023-05-06T05:46:59.796Z,94.01
2023-05-06T05:51:02.502Z,93.18
2023-05-06T05:53:03.890Z,93.33
2023-05-06T05:57:07.023Z,92.94
2023-05-06T05:59:08.124Z,92.56
2023-05-06T06:03:11.306Z,93.06
2023-05-06T06:07:13.750Z,92.1
2023-05-06T06:09:14.786Z,92.14
2023-05-06T06:13:17.936Z,91.25
2023-05-06T06:15:18.826Z,90.35
2023-05-06T06:19:21.431Z,89.59
2023-05-06T06:23:23.528Z,88.6
2023-05-06T06:25:24.651Z,89.65
2023-05-06T06:29:26.851Z,88.02
2023-05-06T06:33:29.220Z,87.46
2023-05-06T06:35:30.060Z,88.08
2023-05-06T06:39:32.193Z,87.6
2023-05-06T06:41:33.601Z,88.23
2023-05-06T06:43:34.624Z,87.27
2023-05-06T06:45:36.164Z,85.95
2023-05-06T06:49:39.219Z,87.53
2023-05-06T06:51:40.701Z,88.16
2023-05-06T06:55:43.494Z,89.15
2023-05-06T06:57:45.202Z,85.55
2023-05-06T07:01:48.233Z,77.88
2023-05-06T07:05:51.068Z,83.55
2023-05-06T07:07:51.997Z,85.4
2023-05-06T07:11:55.205Z,84.17
2023-05-06T07:15:58.094Z,82.54
2023-05-06T07:17:59.467Z,80.38
2023-05-06T07:22:02.859Z,79.5
2023-05-06T07:24:04.527Z,82.15
2023-05-06T07:26:05.821Z,80.89
2023-05-06T07:28:06.721Z,80.27
2023-05-06T07:32:09.251Z,79.75
2023-05-06T07:34:10.878Z,78.21
2023-05-06T07:36:12.627Z,77.29
2023-05-06T07:38:13.758Z,81.02
2023-05-06T07:40:14.704Z,80.27
2023-05-06T07:44:17.552Z,79.85
2023-05-06T07:48:20.224Z,76.03
2023-05-06T07:50:20.782Z,76.29
2023-05-06T07:52:21.764Z,75.45
2023-05-06T07:54:23.079Z,75.8
2023-05-06T07:56:24.118Z,75.43
2023-05-06T08:00:25.813Z,72.75
2023-05-06T08:04:27.826Z,74.3
2023-05-06T08:06:29.336Z,78
2023-05-06T08:10:31.933Z,77.23
2023-05-06T08:14:34.580Z,76.66
2023-05-06T08:16:35.818Z,76.07
2023-05-06T08:20:38.103Z,72.13
2023-05-06T08:22:39.403Z,73.85
2023-05-06T08:26:42.287Z,74.74
2023-05-06T08:30:44.286Z,69.38
2023-05-06T08:32:45.933Z,72.4
2023-05-06T08:36:48.377Z,71.46
2023-05-06T08:38:49.857Z,73.06
2023-05-06T08:42:52.400Z,69.56
2023-05-06T08:46:54.424Z,67.66
2023-05-06T08:48:55.828Z,68.83
2023-05-06T08:52:58.137Z,67.83
2023-05-06T08:54:58.991Z,67.31
2023-05-06T08:59:02.121Z,67.52
2023-05-06T09:03:04.660Z,67.22
2023-05-06T09:05:06.328Z,68.33
2023-05-06T09:09:09.240Z,68.47
2023-05-06T09:13:12.269Z,71.37
2023-05-06T09:15:13.789Z,66.06
2023-05-06T09:19:16.458Z,64.63
2023-05-06T09:21:18.085Z,63.18
2023-05-06T09:25:21.705Z,63.78
2023-05-06T09:29:24.107Z,64.26
2023-05-06T09:31:25.605Z,68.98
2023-05-06T09:35:28.218Z,65.8
2023-05-06T09:37:29.995Z,65.9
2023-05-06T09:41:33.048Z,63.95
2023-05-06T09:45:36.224Z,62.85
2023-05-06T09:47:37.946Z,61.72
2023-05-06T09:51:40.642Z,64.34
2023-05-06T09:55:42.983Z,62.45
2023-05-06T09:57:44.612Z,65.62
2023-05-06T10:01:47.968Z,63.41
2023-05-06T10:03:49.392Z,61.43
2023-05-06T10:07:52.545Z,62.54
2023-05-06T10:11:55.173Z,57.1
2023-05-06T10:13:56.676Z,59.69
2023-05-06T10:17:59.837Z,61.37
2023-05-06T10:24:04.778Z,60.56
2023-05-06T10:28:07.441Z,58.92
2023-05-06T10:30:07.627Z,59.49
2023-05-06T10:34:10.525Z,60.62
2023-05-06T10:36:11.696Z,61.9
2023-05-06T10:40:14.197Z,62.43
2023-05-06T10:44:16.938Z,62.31
2023-05-06T10:46:17.840Z,61.69
2023-05-06T10:50:20.531Z,58.52
2023-05-06T10:52:21.556Z,58.9
2023-05-06T10:56:23.924Z,58.27
2023-05-06T11:00:25.778Z,57.14
2023-05-06T11:02:27.083Z,54.27
2023-05-06T11:06:29.551Z,61.55
2023-05-06T11:10:32.789Z,59.72
2023-05-06T11:12:34.082Z,60.09
2023-05-06T11:16:38.654Z,59.89
2023-05-06T11:21:22.266Z,62.51
2023-05-06T11:23:23.398Z,60.28
2023-05-06T11:25:25.062Z,60.04
2023-05-06T11:27:26.694Z,60.31
2023-05-06T11:29:28.114Z,60.66
2023-05-06T11:33:31.200Z,61.09
2023-05-06T11:37:33.517Z,60.25
2023-05-06T11:39:39.591Z,55.26
2023-05-06T11:43:37.281Z,61.73
2023-05-06T11:45:38.822Z,55.23
2023-05-06T11:49:41.959Z,52.2
2023-05-06T11:53:45.203Z,54.74
2023-05-06T11:55:46.200Z,54.21
2023-05-06T11:59:48.701Z,56.68
2023-05-06T12:03:51.991Z,55.98
2023-05-06T12:05:52.752Z,56.71
2023-05-06T12:09:55.878Z,58.18
2023-05-06T12:11:56.990Z,61.34
2023-05-06T12:15:59.909Z,55.46
2023-05-06T12:20:02.029Z,57.57
2023-05-06T12:22:03.418Z,59.18
2023-05-06T12:26:05.590Z,57.59
2023-05-06T12:28:06.774Z,55.06
2023-05-06T12:32:09.331Z,55.05
2023-05-06T12:36:39.620Z,57
2023-05-06T12:38:12.739Z,57.34
2023-05-06T12:42:15.668Z,55.14
2023-05-06T12:46:18.234Z,59.18
2023-05-06T12:48:19.895Z,54.58
2023-05-06T12:52:22.526Z,58.82
2023-05-06T12:54:23.688Z,58.53
2023-05-06T12:58:26.285Z,56.2
2023-05-06T13:02:28.625Z,56.09
2023-05-06T13:04:29.818Z,52.76
2023-05-06T13:08:32.583Z,55.57
2023-05-06T13:10:34.195Z,52.1
2023-05-06T13:14:39.371Z,55.69
2023-05-06T13:18:40.341Z,56.76
2023-05-06T13:20:41.802Z,55.87
2023-05-06T13:24:43.667Z,59.38
2023-05-06T13:28:46.728Z,58.63
2023-05-06T13:30:48.471Z,57.07
2023-05-06T13:34:50.856Z,56.54
2023-05-06T13:36:52.140Z,59.73
2023-05-06T13:38:53.287Z,56.73
2023-05-06T13:40:54.377Z,58.1
2023-05-06T13:44:56.913Z,59.89
2023-05-06T13:46:58.334Z,59.64
2023-05-06T13:51:00.944Z,55.39
2023-05-06T13:53:03.166Z,56.12
2023-05-06T13:57:06.162Z,56.12
2023-05-06T14:01:09.218Z,57.48
2023-05-06T14:03:10.381Z,61.43
2023-05-06T14:07:12.829Z,54.87
2023-05-06T14:09:13.613Z,52.73
2023-05-06T14:13:15.846Z,57.44
2023-05-06T14:17:18.132Z,54.9
2023-05-06T14:19:19.153Z,53.39
2023-05-06T14:23:22.600Z,53.59
2023-05-06T14:27:24.807Z,52.7
2023-05-06T14:29:25.816Z,52.7
2023-05-06T14:33:28.637Z,53.82
2023-05-06T14:35:29.987Z,54.21
2023-05-06T14:39:32.317Z,53.52
2023-05-06T14:43:35.002Z,52.51
2023-05-06T14:45:36.438Z,52.47
2023-05-06T14:49:39.775Z,56.66
2023-05-06T14:51:41.226Z,55.81
2023-05-06T14:55:43.765Z,49.19
2023-05-06T14:59:46.778Z,48.22
2023-05-06T15:01:47.820Z,48.17
2023-05-06T15:05:50.068Z,48.76
2023-05-06T15:09:53.185Z,48.04
2023-05-06T15:11:54.134Z,48.05
2023-05-06T15:15:56.448Z,50.95
2023-05-06T15:17:57.971Z,50.21
2023-05-06T15:19:59.237Z,51.64
2023-05-06T15:22:00.418Z,51.35
2023-05-06T15:26:12.297Z,47.5
2023-05-06T15:28:04.546Z,48.92
2023-05-06T15:30:05.459Z,48.52
2023-05-06T15:32:06.931Z,50.42
2023-05-06T15:34:08.525Z,49.21
2023-05-06T15:38:10.840Z,48.99
2023-05-06T15:42:13.215Z,47.74
2023-05-06T15:48:17.328Z,47.85
2023-05-06T15:50:31.538Z,47.51
2023-05-06T15:54:21.317Z,48.53
2023-05-06T15:58:23.916Z,44.16
2023-05-06T16:00:25.626Z,44.22
2023-05-06T16:04:28.383Z,43.62
2023-05-06T16:08:30.505Z,45.58
2023-05-06T16:10:31.925Z,46.97
2023-05-06T16:14:34.642Z,47.11
2023-05-06T16:16:35.755Z,43.9
2023-05-06T16:20:37.934Z,43.37
2023-05-06T16:24:41.321Z,44.16
2023-05-06T16:26:42.788Z,45.46
2023-05-06T16:30:45.916Z,44.55
2023-05-06T16:32:47.053Z,44.24
2023-05-06T16:36:49.342Z,43.61
2023-05-06T16:40:52.453Z,41.06
2023-05-06T16:42:53.879Z,40.12
2023-05-06T16:46:56.774Z,43.09
2023-05-06T16:50:59.476Z,43.5
2023-05-06T16:53:01.110Z,45.1
2023-05-06T16:57:03.852Z,45.68
2023-05-06T16:59:05.035Z,44.02
2023-05-06T17:03:07.526Z,43.03
2023-05-06T17:07:09.647Z,43.96
2023-05-06T17:09:11.324Z,44.89
2023-05-06T17:13:14.517Z,46.64
2023-05-06T17:15:15.430Z,51.37
2023-05-06T17:19:18.349Z,49.11
2023-05-06T17:23:21.168Z,48.18
2023-05-06T17:25:22.408Z,49.69
2023-05-06T17:29:25.347Z,51.3
2023-05-06T17:33:28.106Z,51.95
2023-05-06T17:35:29.242Z,52.67
2023-05-06T17:39:32.302Z,55.35
2023-05-06T17:41:33.564Z,55.51
2023-05-06T17:43:34.895Z,56.8
2023-05-06T17:45:36.518Z,59.17
2023-05-06T17:49:38.936Z,60.33
2023-05-06T17:51:40.343Z,63.04
2023-05-06T17:53:41.815Z,63.69
2023-05-06T17:55:42.855Z,62.45
2023-05-06T17:57:44.704Z,63.52
2023-05-06T18:01:47.693Z,66.08
2023-05-06T18:06:34.404Z,64.88
2023-05-06T18:08:36.252Z,64.83
2023-05-06T18:12:39.148Z,66.04
2023-05-06T18:16:42.690Z,66.53
2023-05-06T18:18:43.505Z,64.86
2023-05-06T18:22:45.843Z,65.52
2023-05-06T18:26:48.760Z,65.76
2023-05-06T18:28:50.113Z,68.52
2023-05-06T18:32:53.883Z,68.87
2023-05-06T18:34:54.173Z,70.74
2023-05-06T18:38:56.560Z,72.62
2023-05-06T18:42:59.215Z,69.84
2023-05-06T18:45:00.223Z,68.49
2023-05-06T18:49:02.933Z,68.68
2023-05-06T18:51:04.667Z,72.42
2023-05-06T18:55:07.901Z,74.76
2023-05-06T18:59:10.984Z,76.03
2023-05-06T19:01:12.478Z,74.9
2023-05-06T19:05:14.621Z,74.34
2023-05-06T19:09:17.110Z,74.84
2023-05-06T19:11:18.152Z,75.75
2023-05-06T19:15:20.891Z,77.45
2023-05-06T19:17:22.459Z,77.14
2023-05-06T19:21:25.057Z,76.24
2023-05-06T19:25:27.947Z,78.97
2023-05-06T19:27:28.947Z,78.54
2023-05-06T19:31:31.354Z,79.49
2023-05-06T19:33:33.086Z,79.43
2023-05-06T19:37:36.011Z,80.23
2023-05-06T19:41:39.710Z,79.92
2023-05-06T19:43:41.241Z,79.95
2023-05-06T19:47:44.773Z,80.54
2023-05-06T19:51:46.629Z,80.29
2023-05-06T19:53:48.217Z,80.8
2023-05-06T19:57:51.307Z,81.52
2023-05-06T19:59:52.651Z,82.2
2023-05-06T20:01:54.570Z,82.29
2023-05-06T20:03:55.721Z,82.57
2023-05-06T20:07:58.496Z,83.6
2023-05-06T20:09:59.715Z,83.33
2023-05-06T20:12:01.324Z,83.42
2023-05-06T20:14:02.527Z,83.09
2023-05-06T20:16:03.637Z,82.86
2023-05-06T20:20:06.809Z,83.03
2023-05-06T20:22:07.721Z,83.42
2023-05-06T20:24:09.289Z,83.59
2023-05-06T20:26:10.169Z,83.75
2023-05-06T20:30:13.293Z,84.05
2023-05-06T20:32:14.693Z,84.06
2023-05-06T20:36:17.548Z,85.28
2023-05-06T20:40:20.215Z,85.66
2023-05-06T20:42:21.813Z,85.19
2023-05-06T20:46:24.766Z,84.95
2023-05-06T20:50:26.609Z,85.87
2023-05-06T20:52:27.908Z,86.17
2023-05-06T20:56:31.460Z,86.16
2023-05-06T20:58:32.810Z,86.73
2023-05-06T21:02:39.986Z,86.99
2023-05-06T21:06:38.307Z,87.85
2023-05-06T21:08:40.087Z,88.7
2023-05-06T21:12:43.067Z,89.05
2023-05-06T21:14:44.972Z,89.02
2023-05-06T21:18:47.467Z,88.74
2023-05-06T21:22:50.691Z,88.93
2023-05-06T21:24:51.630Z,89.28
2023-05-06T21:28:54.002Z,89.11
2023-05-06T21:32:56.673Z,89.17
2023-05-06T21:34:58.316Z,89.26
2023-05-06T21:39:01.524Z,90.08
2023-05-06T21:41:03.342Z,90.24
2023-05-06T21:45:06.100Z,90.33
2023-05-06T21:49:08.732Z,90.4
2023-05-06T21:51:10.425Z,90.29
2023-05-06T21:55:13.957Z,90.2
2023-05-06T21:57:15.333Z,90.37
2023-05-06T22:01:17.816Z,90.33
2023-05-06T22:05:20.479Z,90.28
2023-05-06T22:07:22.258Z,90.47
2023-05-06T22:11:25.157Z,90.81
2023-05-06T22:15:27.705Z,90.96
2023-05-06T22:17:29.056Z,91.02
2023-05-06T22:21:32.331Z,90.78
2023-05-06T22:23:34.064Z,90.54
2023-05-06T22:27:37.010Z,90.61
2023-05-06T22:31:40.119Z,90.57
2023-05-06T22:33:41.614Z,91.06
2023-05-06T22:37:44.422Z,91.17
2023-05-06T22:39:45.540Z,91.29
2023-05-06T22:43:48.196Z,91.46
2023-05-06T22:47:50.905Z,91.68
2023-05-06T22:49:52.394Z,92.02
2023-05-06T22:53:55.113Z,92.16
2023-05-06T22:57:56.972Z,92.72
2023-05-06T22:59:58.515Z,92.75
2023-05-06T23:04:02.016Z,93.07
2023-05-06T23:06:03.588Z,93.08
2023-05-06T23:08:05.401Z,93.4
2023-05-06T23:10:06.477Z,93.4
2023-05-06T23:14:09.552Z,93.08
2023-05-06T23:16:10.671Z,92.92
2023-05-06T23:18:12.185Z,93.1
2023-05-06T23:20:13.192Z,93.29
2023-05-06T23:22:14.612Z,93.29
2023-05-06T23:26:17.980Z,93.16
2023-05-06T23:30:20.446Z,93.32
2023-05-06T23:32:21.412Z,93.31
2023-05-06T23:36:24.616Z,93.44
2023-05-06T23:42:28.357Z,93.68
2023-05-06T23:46:31.860Z,93.54
2023-05-06T23:48:32.796Z,93.48
2023-05-06T23:52:34.811Z,93.22
2023-05-06T23:56:36.928Z,93.17
2023-05-06T23:58:38.245Z,93.12
